sensor_id;sensor_type;location;lat;lon;timestamp;P1;durP1;ratioP1;P2;durP2;ratioP2
70942;SDS011;59154;51.970;5.650;2022-07-21T00:00:03;5.6;;;4.5;;
70942;SDS011;59154;51.970;5.650;2022-07-21T00:05:02;7.1;;;5.0;;
70942;SDS011;59154;51.970;5.650;2022-07-21T00:10:03;6.3;;;4.7;;
70942;SDS011;59154;51.970;5.650;2022-07-21T00:15:03;7.7;;;5.3;;
70942;SDS011;59154;51.970;5.650;2022-07-21T00:20:04;6.2;;;5.4;;
70942;SDS011;59154;51.970;5.650;2022-07-21T00:25:02;6.9;;;6.1;;
70942;SDS011;59154;51.970;5.650;2022-07-21T00:30:03;8.1;;;6.5;;
70942;SDS011;59154;51.970;5.650;2022-07-21T00:35:02;7.8;;;6.5;;
70942;SDS011;59154;51.970;5.650;2022-07-21T00:40:04;7.2;;;5.9;;
70942;SDS011;59154;51.970;5.650;2022-07-21T00:45:03;9.0;;;6.2;;
70942;SDS011;59154;51.970;5.650;2022-07-21T00:50:05;7.4;;;6.6;;
70942;SDS011;59154;51.970;5.650;2022-07-21T00:55:02;7.5;;;6.7;;
70942;SDS011;59154;51.970;5.650;2022-07-21T01:00:04;7.2;;;6.2;;
70942;SDS011;59154;51.970;5.650;2022-07-21T01:05:03;7.9;;;6.1;;
70942;SDS011;59154;51.970;5.650;2022-07-21T01:10:03;6.8;;;6.0;;
70942;SDS011;59154;51.970;5.650;2022-07-21T01:15:03;7.3;;;6.5;;
70942;SDS011;59154;51.970;5.650;2022-07-21T01:20:04;8.3;;;6.2;;
70942;SDS011;59154;51.970;5.650;2022-07-21T01:25:02;7.2;;;6.4;;
70942;SDS011;59154;51.970;5.650;2022-07-21T01:30:03;8.3;;;6.5;;
70942;SDS011;59154;51.970;5.650;2022-07-21T01:35:03;7.8;;;6.7;;
70942;SDS011;59154;51.970;5.650;2022-07-21T01:40:03;7.2;;;6.5;;
70942;SDS011;59154;51.970;5.650;2022-07-21T01:45:03;8.2;;;7.1;;
70942;SDS011;59154;51.970;5.650;2022-07-21T01:50:03;7.7;;;6.9;;
70942;SDS011;59154;51.970;5.650;2022-07-21T01:55:02;9.9;;;7.8;;
70942;SDS011;59154;51.970;5.650;2022-07-21T02:00:04;8.8;;;6.9;;
70942;SDS011;59154;51.970;5.650;2022-07-21T02:05:02;8.9;;;8.0;;
70942;SDS011;59154;51.970;5.650;2022-07-21T02:10:03;8.9;;;7.8;;
70942;SDS011;59154;51.970;5.650;2022-07-21T02:15:02;9.3;;;8.0;;
70942;SDS011;59154;51.970;5.650;2022-07-21T02:20:03;9.2;;;8.3;;
70942;SDS011;59154;51.970;5.650;2022-07-21T02:25:02;9.9;;;8.4;;
70942;SDS011;59154;51.970;5.650;2022-07-21T02:30:02;10.4;;;8.0;;
70942;SDS011;59154;51.970;5.650;2022-07-21T02:35:03;9.8;;;8.7;;
70942;SDS011;59154;51.970;5.650;2022-07-21T02:40:03;10.0;;;9.0;;
70942;SDS011;59154;51.970;5.650;2022-07-21T02:45:03;11.0;;;9.0;;
70942;SDS011;59154;51.970;5.650;2022-07-21T02:50:03;11.1;;;9.6;;
70942;SDS011;59154;51.970;5.650;2022-07-21T02:55:02;10.7;;;9.6;;
70942;SDS011;59154;51.970;5.650;2022-07-21T03:00:04;11.1;;;9.2;;
70942;SDS011;59154;51.970;5.650;2022-07-21T03:05:03;11.2;;;10.1;;
70942;SDS011;59154;51.970;5.650;2022-07-21T03:10:03;11.2;;;10.1;;
70942;SDS011;59154;51.970;5.650;2022-07-21T03:15:02;12.6;;;10.0;;
70942;SDS011;59154;51.970;5.650;2022-07-21T03:20:04;12.4;;;9.9;;
70942;SDS011;59154;51.970;5.650;2022-07-21T03:25:02;12.9;;;11.6;;
70942;SDS011;59154;51.970;5.650;2022-07-21T03:30:04;13.8;;;12.3;;
70942;SDS011;59154;51.970;5.650;2022-07-21T03:35:03;13.3;;;11.9;;
70942;SDS011;59154;51.970;5.650;2022-07-21T03:40:02;14.7;;;13.0;;
70942;SDS011;59154;51.970;5.650;2022-07-21T03:45:02;16.9;;;13.0;;
70942;SDS011;59154;51.970;5.650;2022-07-21T03:50:02;15.8;;;12.4;;
70942;SDS011;59154;51.970;5.650;2022-07-21T03:55:03;14.0;;;12.5;;
70942;SDS011;59154;51.970;5.650;2022-07-21T04:00:04;14.2;;;11.7;;
70942;SDS011;59154;51.970;5.650;2022-07-21T04:05:02;13.5;;;12.1;;
70942;SDS011;59154;51.970;5.650;2022-07-21T04:10:03;13.6;;;12.1;;
70942;SDS011;59154;51.970;5.650;2022-07-21T04:15:02;13.1;;;11.8;;
70942;SDS011;59154;51.970;5.650;2022-07-21T04:20:04;13.5;;;12.1;;
70942;SDS011;59154;51.970;5.650;2022-07-21T04:25:02;13.4;;;12.0;;
70942;SDS011;59154;51.970;5.650;2022-07-21T04:30:03;13.5;;;12.1;;
70942;SDS011;59154;51.970;5.650;2022-07-21T04:35:02;14.2;;;12.7;;
70942;SDS011;59154;51.970;5.650;2022-07-21T04:40:04;16.5;;;13.0;;
70942;SDS011;59154;51.970;5.650;2022-07-21T04:45:02;15.1;;;12.9;;
70942;SDS011;59154;51.970;5.650;2022-07-21T04:50:03;16.4;;;12.8;;
70942;SDS011;59154;51.970;5.650;2022-07-21T04:55:03;14.8;;;13.3;;
70942;SDS011;59154;51.970;5.650;2022-07-21T05:00:03;15.1;;;13.5;;
70942;SDS011;59154;51.970;5.650;2022-07-21T05:05:02;15.3;;;13.4;;
70942;SDS011;59154;51.970;5.650;2022-07-21T05:10:03;16.2;;;13.6;;
70942;SDS011;59154;51.970;5.650;2022-07-21T05:15:02;15.3;;;13.3;;
70942;SDS011;59154;51.970;5.650;2022-07-21T05:20:03;14.9;;;13.3;;
70942;SDS011;59154;51.970;5.650;2022-07-21T05:25:02;17.4;;;13.3;;
70942;SDS011;59154;51.970;5.650;2022-07-21T05:30:03;14.6;;;13.1;;
70942;SDS011;59154;51.970;5.650;2022-07-21T05:35:03;14.1;;;12.6;;
70942;SDS011;59154;51.970;5.650;2022-07-21T05:40:03;16.9;;;13.5;;
70942;SDS011;59154;51.970;5.650;2022-07-21T05:45:03;15.7;;;13.8;;
70942;SDS011;59154;51.970;5.650;2022-07-21T05:50:03;17.7;;;14.2;;
70942;SDS011;59154;51.970;5.650;2022-07-21T05:55:02;18.1;;;14.2;;
70942;SDS011;59154;51.970;5.650;2022-07-21T06:00:04;16.3;;;14.0;;
70942;SDS011;59154;51.970;5.650;2022-07-21T06:05:02;17.5;;;13.9;;
70942;SDS011;59154;51.970;5.650;2022-07-21T06:10:03;16.5;;;13.8;;
70942;SDS011;59154;51.970;5.650;2022-07-21T06:15:02;18.1;;;13.2;;
70942;SDS011;59154;51.970;5.650;2022-07-21T06:20:04;12.8;;;11.5;;
70942;SDS011;59154;51.970;5.650;2022-07-21T06:25:02;18.0;;;12.4;;
70942;SDS011;59154;51.970;5.650;2022-07-21T06:30:03;13.7;;;12.1;;
70942;SDS011;59154;51.970;5.650;2022-07-21T06:35:02;16.3;;;12.8;;
70942;SDS011;59154;51.970;5.650;2022-07-21T06:40:04;14.9;;;11.7;;
70942;SDS011;59154;51.970;5.650;2022-07-21T06:45:02;15.4;;;11.9;;
70942;SDS011;59154;51.970;5.650;2022-07-21T06:50:02;13.4;;;11.9;;
70942;SDS011;59154;51.970;5.650;2022-07-21T06:55:02;15.6;;;12.5;;
70942;SDS011;59154;51.970;5.650;2022-07-21T07:00:04;14.0;;;12.3;;
70942;SDS011;59154;51.970;5.650;2022-07-21T07:05:03;15.1;;;13.5;;
70942;SDS011;59154;51.970;5.650;2022-07-21T07:10:03;16.7;;;13.1;;
70942;SDS011;59154;51.970;5.650;2022-07-21T07:15:02;17.8;;;14.2;;
70942;SDS011;59154;51.970;5.650;2022-07-21T07:20:02;17.5;;;13.5;;
70942;SDS011;59154;51.970;5.650;2022-07-21T07:25:02;18.0;;;12.9;;
70942;SDS011;59154;51.970;5.650;2022-07-21T07:30:03;17.7;;;13.2;;
70942;SDS011;59154;51.970;5.650;2022-07-21T07:35:02;18.4;;;14.2;;
70942;SDS011;59154;51.970;5.650;2022-07-21T07:40:03;17.1;;;14.6;;
70942;SDS011;59154;51.970;5.650;2022-07-21T07:45:02;18.3;;;14.2;;
70942;SDS011;59154;51.970;5.650;2022-07-21T07:50:04;18.3;;;14.5;;
70942;SDS011;59154;51.970;5.650;2022-07-21T07:55:02;16.3;;;13.7;;
70942;SDS011;59154;51.970;5.650;2022-07-21T08:00:03;17.2;;;14.2;;
70942;SDS011;59154;51.970;5.650;2022-07-21T08:05:02;14.8;;;12.5;;
70942;SDS011;59154;51.970;5.650;2022-07-21T08:10:02;16.1;;;13.1;;
70942;SDS011;59154;51.970;5.650;2022-07-21T08:15:03;16.1;;;13.6;;
70942;SDS011;59154;51.970;5.650;2022-07-21T08:20:03;15.7;;;13.9;;
70942;SDS011;59154;51.970;5.650;2022-07-21T08:25:02;17.2;;;13.5;;
70942;SDS011;59154;51.970;5.650;2022-07-21T08:30:02;18.6;;;13.6;;
70942;SDS011;59154;51.970;5.650;2022-07-21T08:35:03;16.1;;;14.1;;
70942;SDS011;59154;51.970;5.650;2022-07-21T08:40:03;20.0;;;16.0;;
70942;SDS011;59154;51.970;5.650;2022-07-21T08:45:02;17.2;;;14.2;;
70942;SDS011;59154;51.970;5.650;2022-07-21T08:50:03;15.5;;;12.3;;
70942;SDS011;59154;51.970;5.650;2022-07-21T08:55:02;16.0;;;13.7;;
70942;SDS011;59154;51.970;5.650;2022-07-21T09:00:03;19.9;;;15.4;;
70942;SDS011;59154;51.970;5.650;2022-07-21T09:05:03;18.2;;;14.6;;
70942;SDS011;59154;51.970;5.650;2022-07-21T09:10:03;13.9;;;11.2;;
70942;SDS011;59154;51.970;5.650;2022-07-21T09:15:11;16.6;;;11.4;;
70942;SDS011;59154;51.970;5.650;2022-07-21T09:20:03;14.9;;;11.0;;
70942;SDS011;59154;51.970;5.650;2022-07-21T09:25:03;13.1;;;9.8;;
70942;SDS011;59154;51.970;5.650;2022-07-21T09:30:02;11.5;;;9.4;;
70942;SDS011;59154;51.970;5.650;2022-07-21T09:35:04;10.8;;;8.4;;
70942;SDS011;59154;51.970;5.650;2022-07-21T09:40:04;9.1;;;8.2;;
70942;SDS011;59154;51.970;5.650;2022-07-21T09:45:03;9.7;;;8.0;;
70942;SDS011;59154;51.970;5.650;2022-07-21T09:50:03;10.0;;;8.3;;
70942;SDS011;59154;51.970;5.650;2022-07-21T09:55:03;10.1;;;8.6;;
70942;SDS011;59154;51.970;5.650;2022-07-21T10:00:03;8.5;;;7.5;;
70942;SDS011;59154;51.970;5.650;2022-07-21T10:05:03;9.1;;;7.7;;
70942;SDS011;59154;51.970;5.650;2022-07-21T10:10:03;11.1;;;8.4;;
70942;SDS011;59154;51.970;5.650;2022-07-21T10:15:03;7.9;;;7.1;;
70942;SDS011;59154;51.970;5.650;2022-07-21T10:20:04;9.4;;;8.0;;
70942;SDS011;59154;51.970;5.650;2022-07-21T10:25:02;8.5;;;6.4;;
70942;SDS011;59154;51.970;5.650;2022-07-21T10:30:03;6.6;;;5.9;;
70942;SDS011;59154;51.970;5.650;2022-07-21T10:35:04;6.1;;;5.0;;
70942;SDS011;59154;51.970;5.650;2022-07-21T10:40:03;4.5;;;3.5;;
70942;SDS011;59154;51.970;5.650;2022-07-21T10:45:02;5.0;;;3.7;;
70942;SDS011;59154;51.970;5.650;2022-07-21T10:50:02;4.0;;;3.4;;
70942;SDS011;59154;51.970;5.650;2022-07-21T10:55:18;4.3;;;3.7;;
70942;SDS011;59154;51.970;5.650;2022-07-21T11:00:20;4.2;;;3.3;;
70942;SDS011;59154;51.970;5.650;2022-07-21T11:05:03;4.7;;;3.6;;
70942;SDS011;59154;51.970;5.650;2022-07-21T11:10:13;5.3;;;3.3;;
70942;SDS011;59154;51.970;5.650;2022-07-21T11:15:02;5.6;;;3.5;;
70942;SDS011;59154;51.970;5.650;2022-07-21T11:20:11;4.5;;;3.6;;
70942;SDS011;59154;51.970;5.650;2022-07-21T11:25:03;5.0;;;4.2;;
70942;SDS011;59154;51.970;5.650;2022-07-21T11:30:03;5.1;;;4.3;;
70942;SDS011;59154;51.970;5.650;2022-07-21T11:35:03;6.0;;;5.4;;
70942;SDS011;59154;51.970;5.650;2022-07-21T11:40:03;6.4;;;5.8;;
70942;SDS011;59154;51.970;5.650;2022-07-21T11:45:03;8.1;;;7.1;;
70942;SDS011;59154;51.970;5.650;2022-07-21T11:50:03;7.9;;;6.5;;
70942;SDS011;59154;51.970;5.650;2022-07-21T11:55:03;8.2;;;6.6;;
70942;SDS011;59154;51.970;5.650;2022-07-21T12:00:03;7.7;;;6.7;;
70942;SDS011;59154;51.970;5.650;2022-07-21T12:05:02;7.8;;;6.7;;
70942;SDS011;59154;51.970;5.650;2022-07-21T12:10:03;8.1;;;6.0;;
70942;SDS011;59154;51.970;5.650;2022-07-21T12:15:11;7.3;;;6.4;;
70942;SDS011;59154;51.970;5.650;2022-07-21T12:20:03;6.2;;;5.6;;
70942;SDS011;59154;51.970;5.650;2022-07-21T12:25:03;5.9;;;4.8;;
70942;SDS011;59154;51.970;5.650;2022-07-21T12:30:03;6.7;;;5.2;;
70942;SDS011;59154;51.970;5.650;2022-07-21T12:35:02;6.4;;;5.5;;
70942;SDS011;59154;51.970;5.650;2022-07-21T12:40:03;6.5;;;5.6;;
70942;SDS011;59154;51.970;5.650;2022-07-21T12:45:11;7.1;;;6.2;;
70942;SDS011;59154;51.970;5.650;2022-07-21T12:50:03;7.6;;;6.5;;
70942;SDS011;59154;51.970;5.650;2022-07-21T12:55:03;6.9;;;5.9;;
70942;SDS011;59154;51.970;5.650;2022-07-21T13:00:04;8.4;;;6.8;;
70942;SDS011;59154;51.970;5.650;2022-07-21T13:05:03;6.7;;;5.9;;
70942;SDS011;59154;51.970;5.650;2022-07-21T13:10:02;5.8;;;5.2;;
70942;SDS011;59154;51.970;5.650;2022-07-21T13:15:03;5.0;;;4.5;;
70942;SDS011;59154;51.970;5.650;2022-07-21T13:20:04;5.3;;;4.7;;
70942;SDS011;59154;51.970;5.650;2022-07-21T13:25:02;4.5;;;3.8;;
70942;SDS011;59154;51.970;5.650;2022-07-21T13:30:03;4.9;;;3.8;;
70942;SDS011;59154;51.970;5.650;2022-07-21T13:35:02;5.4;;;4.6;;
70942;SDS011;59154;51.970;5.650;2022-07-21T13:40:04;5.5;;;3.9;;
70942;SDS011;59154;51.970;5.650;2022-07-21T13:45:03;3.2;;;2.9;;
70942;SDS011;59154;51.970;5.650;2022-07-21T13:50:03;3.4;;;3.1;;
70942;SDS011;59154;51.970;5.650;2022-07-21T13:55:03;3.2;;;2.9;;
70942;SDS011;59154;51.970;5.650;2022-07-21T14:00:03;3.7;;;2.9;;
70942;SDS011;59154;51.970;5.650;2022-07-21T14:05:02;2.7;;;2.1;;
70942;SDS011;59154;51.970;5.650;2022-07-21T14:10:02;3.7;;;1.9;;
70942;SDS011;59154;51.970;5.650;2022-07-21T14:15:02;2.8;;;2.2;;
70942;SDS011;59154;51.970;5.650;2022-07-21T14:20:03;3.2;;;2.5;;
70942;SDS011;59154;51.970;5.650;2022-07-21T14:25:02;2.8;;;2.1;;
70942;SDS011;59154;51.970;5.650;2022-07-21T14:30:03;3.0;;;2.1;;
70942;SDS011;59154;51.970;5.650;2022-07-21T14:35:02;4.1;;;1.9;;
70942;SDS011;59154;51.970;5.650;2022-07-21T14:40:04;2.1;;;1.9;;
70942;SDS011;59154;51.970;5.650;2022-07-21T14:45:02;2.7;;;1.9;;
70942;SDS011;59154;51.970;5.650;2022-07-21T14:50:03;3.7;;;1.9;;
70942;SDS011;59154;51.970;5.650;2022-07-21T14:55:03;2.5;;;1.8;;
70942;SDS011;59154;51.970;5.650;2022-07-21T15:00:03;3.2;;;2.0;;
70942;SDS011;59154;51.970;5.650;2022-07-21T15:05:02;3.4;;;1.8;;
70942;SDS011;59154;51.970;5.650;2022-07-21T15:10:03;3.0;;;2.0;;
70942;SDS011;59154;51.970;5.650;2022-07-21T15:15:02;3.7;;;2.3;;
70942;SDS011;59154;51.970;5.650;2022-07-21T15:20:04;3.1;;;2.6;;
70942;SDS011;59154;51.970;5.650;2022-07-21T15:25:02;2.9;;;2.2;;
70942;SDS011;59154;51.970;5.650;2022-07-21T15:30:02;4.3;;;2.9;;
70942;SDS011;59154;51.970;5.650;2022-07-21T15:35:02;4.1;;;3.0;;
70942;SDS011;59154;51.970;5.650;2022-07-21T15:40:04;5.2;;;4.1;;
70942;SDS011;59154;51.970;5.650;2022-07-21T15:45:03;5.5;;;4.7;;
70942;SDS011;59154;51.970;5.650;2022-07-21T15:50:02;6.7;;;5.6;;
70942;SDS011;59154;51.970;5.650;2022-07-21T15:55:02;7.6;;;6.4;;
70942;SDS011;59154;51.970;5.650;2022-07-21T16:00:04;8.1;;;6.7;;
70942;SDS011;59154;51.970;5.650;2022-07-21T16:05:02;9.0;;;7.4;;
70942;SDS011;59154;51.970;5.650;2022-07-21T16:10:02;6.4;;;5.8;;
70942;SDS011;59154;51.970;5.650;2022-07-21T16:15:02;4.7;;;4.2;;
70942;SDS011;59154;51.970;5.650;2022-07-21T16:20:03;5.0;;;4.1;;
70942;SDS011;59154;51.970;5.650;2022-07-21T16:25:02;5.2;;;2.8;;
70942;SDS011;59154;51.970;5.650;2022-07-21T16:30:02;2.6;;;2.0;;
70942;SDS011;59154;51.970;5.650;2022-07-21T16:35:03;2.9;;;1.3;;
70942;SDS011;59154;51.970;5.650;2022-07-21T16:40:04;1.9;;;1.5;;
70942;SDS011;59154;51.970;5.650;2022-07-21T16:45:02;2.1;;;0.9;;
70942;SDS011;59154;51.970;5.650;2022-07-21T16:50:03;1.9;;;1.0;;
70942;SDS011;59154;51.970;5.650;2022-07-21T16:55:02;2.0;;;0.9;;
70942;SDS011;59154;51.970;5.650;2022-07-21T17:00:04;1.3;;;1.0;;
70942;SDS011;59154;51.970;5.650;2022-07-21T17:05:02;2.7;;;1.2;;
70942;SDS011;59154;51.970;5.650;2022-07-21T17:10:03;3.0;;;0.8;;
70942;SDS011;59154;51.970;5.650;2022-07-21T17:15:03;0.9;;;0.8;;
70942;SDS011;59154;51.970;5.650;2022-07-21T17:20:04;1.3;;;1.0;;
70942;SDS011;59154;51.970;5.650;2022-07-21T17:25:03;1.3;;;1.0;;
70942;SDS011;59154;51.970;5.650;2022-07-21T17:30:03;1.4;;;1.0;;
70942;SDS011;59154;51.970;5.650;2022-07-21T17:35:02;1.6;;;0.8;;
70942;SDS011;59154;51.970;5.650;2022-07-21T17:40:03;2.1;;;1.2;;
70942;SDS011;59154;51.970;5.650;2022-07-21T17:45:03;2.6;;;1.3;;
70942;SDS011;59154;51.970;5.650;2022-07-21T17:50:03;2.5;;;1.4;;
70942;SDS011;59154;51.970;5.650;2022-07-21T17:55:02;2.5;;;1.3;;
70942;SDS011;59154;51.970;5.650;2022-07-21T18:00:03;3.7;;;1.3;;
70942;SDS011;59154;51.970;5.650;2022-07-21T18:05:02;1.9;;;1.1;;
70942;SDS011;59154;51.970;5.650;2022-07-21T18:10:03;5.2;;;1.2;;
70942;SDS011;59154;51.970;5.650;2022-07-21T18:15:03;2.1;;;1.4;;
70942;SDS011;59154;51.970;5.650;2022-07-21T18:20:04;3.5;;;1.3;;
70942;SDS011;59154;51.970;5.650;2022-07-21T18:25:03;2.5;;;1.4;;
70942;SDS011;59154;51.970;5.650;2022-07-21T18:30:02;4.2;;;1.3;;
70942;SDS011;59154;51.970;5.650;2022-07-21T18:35:02;6.4;;;2.0;;
70942;SDS011;59154;51.970;5.650;2022-07-21T18:40:04;2.5;;;1.4;;
70942;SDS011;59154;51.970;5.650;2022-07-21T18:45:02;3.2;;;1.8;;
70942;SDS011;59154;51.970;5.650;2022-07-21T18:50:03;4.4;;;2.5;;
70942;SDS011;59154;51.970;5.650;2022-07-21T18:55:02;6.1;;;5.2;;
70942;SDS011;59154;51.970;5.650;2022-07-21T19:00:03;4.5;;;3.8;;
70942;SDS011;59154;51.970;5.650;2022-07-21T19:05:02;8.1;;;4.0;;
70942;SDS011;59154;51.970;5.650;2022-07-21T19:10:03;4.9;;;3.4;;
70942;SDS011;59154;51.970;5.650;2022-07-21T19:15:02;7.7;;;3.4;;
70942;SDS011;59154;51.970;5.650;2022-07-21T19:20:03;7.1;;;3.4;;
70942;SDS011;59154;51.970;5.650;2022-07-21T19:25:02;5.4;;;2.6;;
70942;SDS011;59154;51.970;5.650;2022-07-21T19:30:03;4.2;;;2.1;;
70942;SDS011;59154;51.970;5.650;2022-07-21T19:35:02;5.2;;;2.1;;
70942;SDS011;59154;51.970;5.650;2022-07-21T19:40:03;5.8;;;1.9;;
70942;SDS011;59154;51.970;5.650;2022-07-21T19:45:02;6.7;;;3.0;;
70942;SDS011;59154;51.970;5.650;2022-07-21T19:50:02;6.8;;;4.4;;
70942;SDS011;59154;51.970;5.650;2022-07-21T19:55:03;9.2;;;6.9;;
70942;SDS011;59154;51.970;5.650;2022-07-21T20:00:03;9.8;;;7.0;;
70942;SDS011;59154;51.970;5.650;2022-07-21T20:05:02;7.6;;;3.4;;
70942;SDS011;59154;51.970;5.650;2022-07-21T20:10:03;6.2;;;2.7;;
70942;SDS011;59154;51.970;5.650;2022-07-21T20:15:03;5.8;;;2.7;;
70942;SDS011;59154;51.970;5.650;2022-07-21T20:20:03;6.2;;;2.4;;
70942;SDS011;59154;51.970;5.650;2022-07-21T20:25:02;7.0;;;2.4;;
70942;SDS011;59154;51.970;5.650;2022-07-21T20:30:02;5.7;;;2.8;;
70942;SDS011;59154;51.970;5.650;2022-07-21T20:35:02;7.1;;;2.6;;
70942;SDS011;59154;51.970;5.650;2022-07-21T20:40:03;10.0;;;2.9;;
70942;SDS011;59154;51.970;5.650;2022-07-21T20:45:03;8.1;;;2.9;;
70942;SDS011;59154;51.970;5.650;2022-07-21T20:50:03;7.7;;;3.1;;
70942;SDS011;59154;51.970;5.650;2022-07-21T20:55:02;9.9;;;3.1;;
70942;SDS011;59154;51.970;5.650;2022-07-21T21:00:04;7.7;;;2.3;;
70942;SDS011;59154;51.970;5.650;2022-07-21T21:05:02;6.1;;;2.6;;
70942;SDS011;59154;51.970;5.650;2022-07-21T21:10:03;7.9;;;2.5;;
70942;SDS011;59154;51.970;5.650;2022-07-21T21:15:02;6.9;;;2.2;;
70942;SDS011;59154;51.970;5.650;2022-07-21T21:20:04;3.2;;;2.1;;
70942;SDS011;59154;51.970;5.650;2022-07-21T21:25:02;4.2;;;2.4;;
70942;SDS011;59154;51.970;5.650;2022-07-21T21:30:03;5.4;;;2.0;;
70942;SDS011;59154;51.970;5.650;2022-07-21T21:35:02;10.1;;;2.3;;
70942;SDS011;59154;51.970;5.650;2022-07-21T21:40:03;4.5;;;2.0;;
70942;SDS011;59154;51.970;5.650;2022-07-21T21:45:02;4.5;;;2.0;;
70942;SDS011;59154;51.970;5.650;2022-07-21T21:50:02;4.6;;;2.1;;
70942;SDS011;59154;51.970;5.650;2022-07-21T21:55:03;6.7;;;2.2;;
70942;SDS011;59154;51.970;5.650;2022-07-21T22:00:04;7.2;;;2.5;;
70942;SDS011;59154;51.970;5.650;2022-07-21T22:05:02;6.2;;;2.5;;
70942;SDS011;59154;51.970;5.650;2022-07-21T22:10:02;5.6;;;1.8;;
70942;SDS011;59154;51.970;5.650;2022-07-21T22:15:03;7.7;;;2.6;;
70942;SDS011;59154;51.970;5.650;2022-07-21T22:20:04;5.7;;;2.3;;
70942;SDS011;59154;51.970;5.650;2022-07-21T22:25:03;5.3;;;2.2;;
70942;SDS011;59154;51.970;5.650;2022-07-21T22:30:04;4.8;;;2.7;;
70942;SDS011;59154;51.970;5.650;2022-07-21T22:35:03;8.0;;;2.7;;
70942;SDS011;59154;51.970;5.650;2022-07-21T22:40:03;4.9;;;2.4;;
70942;SDS011;59154;51.970;5.650;2022-07-21T22:45:02;5.3;;;2.5;;
70942;SDS011;59154;51.970;5.650;2022-07-21T22:50:02;6.2;;;2.3;;
70942;SDS011;59154;51.970;5.650;2022-07-21T22:55:02;5.2;;;2.5;;
70942;SDS011;59154;51.970;5.650;2022-07-21T23:00:03;5.4;;;2.9;;
70942;SDS011;59154;51.970;5.650;2022-07-21T23:05:02;4.9;;;2.6;;
70942;SDS011;59154;51.970;5.650;2022-07-21T23:10:03;7.6;;;2.8;;
70942;SDS011;59154;51.970;5.650;2022-07-21T23:15:03;7.7;;;3.1;;
70942;SDS011;59154;51.970;5.650;2022-07-21T23:20:03;6.8;;;2.6;;
70942;SDS011;59154;51.970;5.650;2022-07-21T23:25:02;5.3;;;2.1;;
70942;SDS011;59154;51.970;5.650;2022-07-21T23:30:03;7.1;;;2.6;;
70942;SDS011;59154;51.970;5.650;2022-07-21T23:35:02;10.0;;;2.8;;
70942;SDS011;59154;51.970;5.650;2022-07-21T23:40:03;4.4;;;2.4;;
70942;SDS011;59154;51.970;5.650;2022-07-21T23:45:02;8.1;;;3.1;;
70942;SDS011;59154;51.970;5.650;2022-07-21T23:50:03;6.0;;;2.6;;
70942;SDS011;59154;51.970;5.650;2022-07-21T23:55:02;7.3;;;2.8;;
